Time;durP1;ratioP1;P1;durP2;ratioP2;P2;SDS_P1;SDS_P2;PMS_P1;PMS_P2;Temp;Humidity;BMP_temperature;BMP_pressure;BME280_temperature;BME280_humidity;BME280_pressure;Samples;Min_cycle;Max_cycle;Signal;HPM_P1;HPM_P2
2022/08/05 00:02:15;;;;;;;9.82;5.15;;;;;;;18.91;100.00;101463.84;5205183;28;20030;-73
2022/08/05 00:04:45;;;;;;;12.98;5.60;;;;;;;18.88;100.00;101457.81;5193169;28;20021;-73
2022/08/05 00:07:16;;;;;;;16.10;6.15;;;;;;;18.85;100.00;101455.47;5205572;28;20037;-73
2022/08/05 00:09:46;;;;;;;10.45;5.38;;;;;;;18.82;100.00;101450.44;5205074;28;20025;-73
2022/08/05 00:12:16;;;;;;;10.40;6.18;;;;;;;18.80;100.00;101447.09;5205269;28;20112;-73
2022/08/05 00:14:47;;;;;;;10.38;6.47;;;;;;;18.79;100.00;101459.03;5199027;28;20022;-73
2022/08/05 00:17:17;;;;;;;11.57;6.13;;;;;;;18.79;100.00;101463.63;5203303;28;20030;-73
2022/08/05 00:19:48;;;;;;;10.98;5.22;;;;;;;18.80;100.00;101468.00;5204684;28;20391;-75
2022/08/05 00:22:18;;;;;;;16.45;6.30;;;;;;;18.77;100.00;101474.69;5204963;28;20051;-73
2022/08/05 00:24:49;;;;;;;11.82;6.05;;;;;;;18.74;100.00;101480.56;5204080;28;20087;-74
2022/08/05 00:27:19;;;;;;;9.50;5.97;;;;;;;18.72;100.00;101496.19;5204848;28;20156;-73
2022/08/05 00:29:50;;;;;;;12.25;6.80;;;;;;;18.75;100.00;101503.13;5203636;28;20031;-74
2022/08/05 00:32:20;;;;;;;28.30;7.43;;;;;;;18.70;100.00;101517.31;5204065;28;20475;-73
2022/08/05 00:34:51;;;;;;;12.68;6.65;;;;;;;18.68;100.00;101530.28;5203594;28;20026;-74
2022/08/05 00:37:21;;;;;;;11.65;6.43;;;;;;;18.67;100.00;101533.16;5204852;28;20502;-74
2022/08/05 00:39:52;;;;;;;11.45;6.22;;;;;;;18.65;100.00;101541.53;5204785;28;20116;-73
2022/08/05 00:42:35;;;;;;;11.30;6.57;;;;;;;18.60;100.00;101542.13;5204814;28;20021;-73
2022/08/05 00:45:07;;;;;;;15.85;6.32;;;;;;;18.56;100.00;101548.16;5204275;28;20029;-72
2022/08/05 00:47:39;;;;;;;16.85;7.03;;;;;;;18.51;100.00;101564.25;5201445;28;20104;-72
2022/08/05 00:50:10;;;;;;;9.80;6.75;;;;;;;18.49;100.00;101580.75;5204127;28;20030;-72
2022/08/05 00:52:40;;;;;;;17.77;6.93;;;;;;;18.46;100.00;101586.56;5204466;28;20025;-72
2022/08/05 00:55:11;;;;;;;14.15;7.20;;;;;;;18.42;100.00;101601.59;5203763;28;20032;-71
2022/08/05 00:57:41;;;;;;;11.05;6.78;;;;;;;18.37;100.00;101594.06;5204592;28;20031;-72
2022/08/05 01:00:12;;;;;;;13.90;7.93;;;;;;;18.33;100.00;101578.38;5203988;28;20022;-73
2022/08/05 01:02:43;;;;;;;16.25;7.20;;;;;;;18.29;100.00;101556.19;5201046;28;20419;-72
2022/08/05 01:05:13;;;;;;;14.85;6.25;;;;;;;18.31;100.00;101556.81;5195669;28;20029;-72
2022/08/05 01:07:44;;;;;;;14.15;6.20;;;;;;;18.33;100.00;101556.63;5205154;28;20124;-72
2022/08/05 01:10:19;;;;;;;17.08;7.63;;;;;;;18.34;100.00;101559.13;5204723;28;20032;-73
2022/08/05 01:12:55;;;;;;;17.63;7.40;;;;;;;18.34;100.00;101558.31;5203096;28;20502;-73
2022/08/05 01:15:32;;;;;;;13.43;6.65;;;;;;;18.34;100.00;101552.88;5195870;28;20034;-75
2022/08/05 01:18:08;;;;;;;20.05;7.20;;;;;;;18.33;100.00;101522.16;5204928;28;20035;-72
2022/08/05 01:21:11;;;;;;;17.15;6.70;;;;;;;18.32;100.00;101511.47;5204286;28;20033;-72
2022/08/05 01:24:00;;;;;;;14.52;6.78;;;;;;;18.32;100.00;101476.16;5204658;28;20036;-71
2022/08/05 01:27:16;;;;;;;14.80;6.78;;;;;;;18.22;100.00;101377.94;5203849;28;20033;-73
2022/08/05 01:29:51;;;;;;;13.55;6.75;;;;;;;18.11;100.00;101322.34;5204278;28;20155;-71
2022/08/05 01:32:26;;;;;;;13.98;6.80;;;;;;;18.23;100.00;101459.22;5203367;28;20022;-73
2022/08/05 01:35:01;;;;;;;14.63;5.97;;;;;;;18.26;100.00;101534.00;5203199;28;20115;-72
2022/08/05 01:37:38;;;;;;;14.82;5.90;;;;;;;18.27;100.00;101493.09;5204561;28;20128;-74
2022/08/05 01:40:11;;;;;;;15.10;7.00;;;;;;;18.22;100.00;101481.97;5203549;28;20053;-74
2022/08/05 01:42:43;;;;;;;15.43;6.53;;;;;;;18.23;100.00;101502.69;5204148;28;20025;-72
2022/08/05 01:45:18;;;;;;;13.73;6.78;;;;;;;18.23;100.00;101513.53;5203419;28;20104;-71
2022/08/05 01:47:51;;;;;;;14.95;7.00;;;;;;;18.25;100.00;101513.34;5200930;28;20163;-74
2022/08/05 01:50:26;;;;;;;11.50;7.15;;;;;;;18.21;100.00;101517.47;5203534;28;20025;-73
2022/08/05 01:53:16;;;;;;;16.08;7.07;;;;;;;18.22;100.00;101524.59;5203878;28;20026;-72
2022/08/05 01:55:51;;;;;;;14.10;7.03;;;;;;;18.31;100.00;101523.38;5203086;28;20025;-71
2022/08/05 01:58:26;;;;;;;15.77;6.55;;;;;;;18.30;100.00;101522.53;5202379;28;20040;-71
2022/08/05 02:00:59;;;;;;;12.25;7.38;;;;;;;18.26;100.00;101521.25;5203622;28;20363;-72
2022/08/05 02:03:35;;;;;;;14.60;7.32;;;;;;;18.24;100.00;101508.94;5193398;28;20034;-70
2022/08/05 02:06:07;;;;;;;23.52;8.77;;;;;;;18.23;100.00;101504.56;5202128;28;20076;-72
2022/08/05 02:08:38;;;;;;;13.85;8.07;;;;;;;18.21;100.00;101493.03;5203202;28;20113;-73
2022/08/05 02:11:11;;;;;;;21.13;8.00;;;;;;;18.18;100.00;101496.16;5203394;28;20025;-74
2022/08/05 02:13:54;;;;;;;17.48;7.78;;;;;;;18.18;100.00;101501.59;5203321;28;20402;-71
2022/08/05 02:16:33;;;;;;;20.05;8.32;;;;;;;18.19;100.00;101498.69;5195499;28;20075;-72
2022/08/05 02:19:16;;;;;;;15.15;6.90;;;;;;;18.21;100.00;101507.44;5203497;28;20034;-71
2022/08/05 02:21:57;;;;;;;12.00;7.22;;;;;;;18.16;100.00;101499.06;5202927;28;20038;-71
2022/08/05 02:24:36;;;;;;;19.75;8.18;;;;;;;18.14;100.00;101506.59;5192950;28;20431;-71
2022/08/05 02:27:10;;;;;;;18.50;8.38;;;;;;;18.11;100.00;101513.25;5202746;28;20455;-72
2022/08/05 02:29:43;;;;;;;19.98;8.35;;;;;;;18.13;100.00;101523.94;5201649;28;20048;-72
2022/08/05 02:32:17;;;;;;;17.80;8.70;;;;;;;18.14;100.00;101527.47;5189672;28;20029;-74
2022/08/05 02:34:49;;;;;;;23.40;9.70;;;;;;;18.12;100.00;101530.38;5202523;28;20029;-72
2022/08/05 02:37:20;;;;;;;17.40;8.05;;;;;;;18.16;100.00;101530.81;5202982;28;20507;-71
2022/08/05 02:39:52;;;;;;;22.95;9.10;;;;;;;18.15;100.00;101529.97;5202295;28;20083;-70
2022/08/05 02:42:23;;;;;;;21.08;8.75;;;;;;;18.20;100.00;101543.81;5203809;28;20120;-71
2022/08/05 02:44:55;;;;;;;18.85;9.57;;;;;;;18.18;100.00;101535.03;5209045;28;20422;-71
2022/08/05 02:47:28;;;;;;;14.10;7.35;;;;;;;18.18;100.00;101535.03;5201798;28;20033;-72
2022/08/05 02:50:00;;;;;;;19.67;7.30;;;;;;;18.19;100.00;101539.41;5208898;28;20022;-72
2022/08/05 02:52:32;;;;;;;17.27;8.13;;;;;;;18.28;100.00;101534.66;5209699;28;20026;-72
2022/08/05 02:55:05;;;;;;;16.35;8.48;;;;;;;18.31;100.00;101536.97;5208560;28;20045;-71
2022/08/05 02:57:38;;;;;;;18.15;7.88;;;;;;;18.26;100.00;101536.72;5209547;28;20025;-71
2022/08/05 03:00:11;;;;;;;20.15;8.43;;;;;;;18.24;100.00;101536.94;5209159;28;20584;-71
2022/08/05 03:02:44;;;;;;;22.35;8.98;;;;;;;18.23;100.00;101537.97;5205528;28;20483;-72
2022/08/05 03:05:15;;;;;;;17.55;8.18;;;;;;;18.21;100.00;101536.50;5199920;28;20090;-73
2022/08/05 03:07:46;;;;;;;22.52;7.90;;;;;;;18.16;100.00;101533.53;5209276;28;20522;-73
2022/08/05 03:10:17;;;;;;;16.95;8.48;;;;;;;18.21;100.00;101540.03;5208998;28;20070;-72
2022/08/05 03:12:48;;;;;;;17.27;9.38;;;;;;;18.18;100.00;101535.03;5209589;28;20021;-72
2022/08/05 03:15:20;;;;;;;20.08;8.88;;;;;;;18.14;100.00;101522.03;5201139;28;20386;-72
2022/08/05 03:17:53;;;;;;;20.20;8.88;;;;;;;18.13;100.00;101515.78;5208834;28;20025;-72
2022/08/05 03:20:23;;;;;;;17.50;8.52;;;;;;;18.17;100.00;101513.47;5208745;28;20084;-73
2022/08/05 03:22:55;;;;;;;23.08;9.60;;;;;;;18.13;100.00;101509.50;5209635;28;20037;-71
2022/08/05 03:25:27;;;;;;;20.33;9.52;;;;;;;18.07;100.00;101508.41;5208605;28;20079;-71
2022/08/05 03:27:58;;;;;;;20.35;9.20;;;;;;;18.11;100.00;101506.97;5209368;28;20112;-71
2022/08/05 03:30:31;;;;;;;22.20;9.07;;;;;;;18.08;100.00;101510.09;5208552;28;20075;-73
2022/08/05 03:33:03;;;;;;;18.77;8.95;;;;;;;18.07;100.00;101505.69;5208902;28;20148;-72
2022/08/05 03:35:34;;;;;;;21.85;9.50;;;;;;;18.07;100.00;101490.28;5208463;28;20056;-72
2022/08/05 03:38:04;;;;;;;19.45;8.32;;;;;;;18.01;100.00;101488.31;5208683;28;20026;-71
2022/08/05 03:40:39;;;;;;;19.08;8.77;;;;;;;17.97;100.00;101478.94;5209227;28;20029;-73
2022/08/05 03:43:11;;;;;;;27.50;11.13;;;;;;;17.93;100.00;101477.66;5209011;28;20025;-72
2022/08/05 03:45:42;;;;;;;24.05;10.18;;;;;;;17.92;100.00;101473.22;5208645;28;20013;-72
2022/08/05 03:48:12;;;;;;;18.67;9.00;;;;;;;17.94;100.00;101476.59;5206826;28;20494;-72
2022/08/05 03:50:58;;;;;;;19.05;9.00;;;;;;;17.95;100.00;101488.31;5208940;28;20021;-72
2022/08/05 03:53:33;;;;;;;18.08;8.65;;;;;;;17.91;100.00;101496.00;5209002;28;20131;-71
2022/08/05 03:56:38;;;;;;;24.27;9.52;;;;;;;17.91;100.00;101498.69;5203228;28;20383;-73
2022/08/05 03:59:15;;;;;;;23.25;9.25;;;;;;;17.91;100.00;101495.16;5205792;28;20029;-72
2022/08/05 04:01:48;;;;;;;19.17;8.00;;;;;;;17.94;100.00;101494.78;5204884;28;20036;-72
2022/08/05 04:04:20;;;;;;;20.70;8.82;;;;;;;17.85;100.00;101492.19;5192971;28;20018;-72
2022/08/05 04:06:52;;;;;;;18.88;9.68;;;;;;;17.79;100.00;101494.88;5204306;28;20039;-72
2022/08/05 04:09:23;;;;;;;17.33;8.38;;;;;;;17.73;100.00;101498.38;5205461;28;20387;-72
2022/08/05 04:11:55;;;;;;;15.77;9.07;;;;;;;17.71;100.00;101509.38;5205099;28;20022;-71
2022/08/05 04:14:25;;;;;;;16.80;8.80;;;;;;;17.68;100.00;101514.38;5204485;28;20380;-72
2022/08/05 04:16:57;;;;;;;18.92;8.55;;;;;;;17.61;100.00;101515.16;5205162;28;20037;-72
2022/08/05 04:19:28;;;;;;;27.02;8.88;;;;;;;17.61;100.00;101522.47;5205769;28;20025;-73
2022/08/05 04:21:59;;;;;;;16.30;8.15;;;;;;;17.60;100.00;101510.78;5205105;28;20091;-72
2022/08/05 04:24:29;;;;;;;17.08;8.35;;;;;;;17.55;100.00;101507.81;5204290;28;20013;-72
2022/08/05 04:26:59;;;;;;;16.73;8.90;;;;;;;17.51;100.00;101511.09;5204025;28;20021;-72
2022/08/05 04:29:30;;;;;;;15.52;8.50;;;;;;;17.48;100.00;101506.09;5204860;28;20498;-73
2022/08/05 04:32:01;;;;;;;17.80;8.07;;;;;;;17.48;100.00;101509.63;5204765;28;20029;-71
2022/08/05 04:34:31;;;;;;;14.45;8.55;;;;;;;17.45;100.00;101520.88;5204119;28;20502;-71
2022/08/05 04:37:02;;;;;;;19.38;9.35;;;;;;;17.41;100.00;101511.44;5204802;28;20075;-72
2022/08/05 04:39:33;;;;;;;23.75;9.68;;;;;;;17.39;100.00;101502.66;5204594;28;20056;-71
2022/08/05 04:42:04;;;;;;;18.50;8.88;;;;;;;17.39;100.00;101512.69;5205724;28;20040;-72
2022/08/05 04:44:34;;;;;;;21.58;9.38;;;;;;;17.41;100.00;101513.31;5204689;28;20128;-73
2022/08/05 04:47:05;;;;;;;26.05;9.52;;;;;;;17.38;100.00;101514.56;5204854;28;20434;-72
2022/08/05 04:49:37;;;;;;;16.27;8.43;;;;;;;17.37;100.00;101503.88;5201520;28;20028;-72
2022/08/05 04:52:08;;;;;;;21.73;9.07;;;;;;;17.38;100.00;101509.13;5204579;28;20022;-73
2022/08/05 04:54:39;;;;;;;19.45;8.40;;;;;;;17.33;100.00;101504.28;5202828;28;20450;-72
2022/08/05 04:57:10;;;;;;;23.58;9.02;;;;;;;17.27;100.00;101507.78;5204517;28;20021;-72
2022/08/05 04:59:40;;;;;;;18.35;9.00;;;;;;;17.24;100.00;101516.28;5203909;28;20035;-71
2022/08/05 05:02:10;;;;;;;19.10;9.45;;;;;;;17.22;100.00;101521.09;5203958;28;20033;-70
2022/08/05 05:04:41;;;;;;;24.55;9.70;;;;;;;17.23;100.00;101530.06;5192063;28;20502;-70
2022/08/05 05:07:11;;;;;;;22.50;9.65;;;;;;;17.32;100.00;101534.31;5203239;28;20076;-70
2022/08/05 05:09:43;;;;;;;18.90;8.43;;;;;;;17.37;100.00;101536.44;5198165;28;20124;-70
2022/08/05 05:12:13;;;;;;;19.30;8.18;;;;;;;17.39;100.00;101537.09;5193871;28;20224;-70
2022/08/05 05:14:44;;;;;;;18.77;9.13;;;;;;;17.46;100.00;101530.69;5196350;28;20021;-70
2022/08/05 05:17:14;;;;;;;20.85;7.68;;;;;;;17.46;100.00;101529.84;5188464;28;20021;-70
2022/08/05 05:19:45;;;;;;;21.48;8.65;;;;;;;17.44;100.00;101527.34;5201589;28;20472;-70
2022/08/05 05:22:16;;;;;;;14.65;8.43;;;;;;;17.48;100.00;101539.47;5201202;28;20047;-71
2022/08/05 05:24:46;;;;;;;16.00;8.05;;;;;;;17.44;100.00;101542.78;5200306;28;20021;-70
2022/08/05 05:27:17;;;;;;;23.70;9.20;;;;;;;17.49;100.00;101540.31;5200622;28;20045;-70
2022/08/05 05:29:47;;;;;;;23.00;9.00;;;;;;;17.50;100.00;101544.69;5201094;28;20383;-70
2022/08/05 05:32:18;;;;;;;16.08;8.52;;;;;;;17.57;100.00;101551.00;5201278;28;20018;-70
2022/08/05 05:34:48;;;;;;;15.23;7.70;;;;;;;17.62;100.00;101548.56;5197356;28;20036;-71
2022/08/05 05:37:19;;;;;;;22.08;8.52;;;;;;;17.72;100.00;101549.09;5189579;28;20033;-70
2022/08/05 05:39:49;;;;;;;14.77;8.10;;;;;;;17.80;100.00;101550.81;5200649;28;20025;-70
2022/08/05 05:42:20;;;;;;;20.98;8.88;;;;;;;17.83;100.00;101559.41;5201081;28;20487;-71
2022/08/05 05:44:50;;;;;;;18.13;8.57;;;;;;;17.89;100.00;101557.78;5199715;28;20483;-72
2022/08/05 05:47:21;;;;;;;14.20;7.95;;;;;;;17.95;100.00;101558.88;5199792;28;20030;-69
2022/08/05 05:49:51;;;;;;;19.58;8.63;;;;;;;18.10;100.00;101567.75;5190606;28;20029;-70
2022/08/05 05:52:23;;;;;;;16.42;8.38;;;;;;;18.21;100.00;101569.91;5201393;28;20014;-69
2022/08/05 05:54:53;;;;;;;24.10;9.13;;;;;;;18.18;100.00;101577.63;5199651;28;20029;-70
2022/08/05 05:57:24;;;;;;;18.50;8.50;;;;;;;18.23;100.00;101581.44;5200253;28;20032;-70
2022/08/05 05:59:54;;;;;;;14.25;7.57;;;;;;;18.22;100.00;101582.44;5200175;28;20537;-70
2022/08/05 06:02:25;;;;;;;20.05;7.78;;;;;;;18.22;100.00;101581.63;5198724;28;20033;-70
2022/08/05 06:04:55;;;;;;;16.92;8.15;;;;;;;18.18;100.00;101578.47;5189229;28;20501;-70
2022/08/05 06:07:26;;;;;;;14.10;8.35;;;;;;;18.24;100.00;101590.41;5200046;28;20034;-70
2022/08/05 06:09:56;;;;;;;18.00;8.40;;;;;;;18.25;100.00;101586.66;5189486;28;20037;-70
2022/08/05 06:12:27;;;;;;;15.93;8.63;;;;;;;18.30;100.00;101582.31;5198482;28;20075;-70
2022/08/05 06:15:00;;;;;;;18.92;7.90;;;;;;;18.45;100.00;101594.94;5192519;28;20026;-70
2022/08/05 06:17:30;;;;;;;15.07;7.57;;;;;;;18.46;100.00;101592.00;5198963;28;20116;-70
2022/08/05 06:20:03;;;;;;;20.27;8.80;;;;;;;18.52;100.00;101598.50;5200398;28;20148;-70
2022/08/05 06:22:34;;;;;;;17.60;8.65;;;;;;;18.68;100.00;101594.66;5200187;28;20021;-70
2022/08/05 06:25:07;;;;;;;16.25;8.30;;;;;;;19.17;100.00;101599.88;5199352;28;20028;-70
2022/08/05 06:27:38;;;;;;;16.75;7.97;;;;;;;19.53;100.00;101620.47;5197878;28;20349;-71
2022/08/05 06:30:14;;;;;;;13.20;6.70;;;;;;;19.80;100.00;101618.66;5200250;28;20453;-70
2022/08/05 06:32:45;;;;;;;17.30;6.47;;;;;;;20.24;100.00;101619.91;5200430;28;20483;-70
2022/08/05 06:35:15;;;;;;;17.10;7.07;;;;;;;20.60;100.00;101611.28;5199403;28;20035;-71
2022/08/05 06:37:46;;;;;;;16.58;6.63;;;;;;;21.05;100.00;101624.97;5200300;28;20052;-71
2022/08/05 06:40:16;;;;;;;12.18;6.13;;;;;;;21.66;100.00;101628.00;5200427;28;20056;-70
2022/08/05 06:42:49;;;;;;;11.63;5.28;;;;;;;22.26;100.00;101640.38;5200076;28;20030;-70
2022/08/05 06:45:21;;;;;;;11.70;5.15;;;;;;;22.49;100.00;101637.81;5199414;28;20021;-70
2022/08/05 06:47:51;;;;;;;11.68;5.68;;;;;;;21.95;100.00;101637.44;5196659;28;20587;-70
2022/08/05 06:50:22;;;;;;;11.35;6.40;;;;;;;21.52;100.00;101640.03;5191443;28;20025;-71
2022/08/05 06:52:52;;;;;;;15.60;6.38;;;;;;;21.07;100.00;101647.38;5200267;28;20026;-70
2022/08/05 06:55:23;;;;;;;10.68;6.85;;;;;;;20.86;100.00;101638.44;5199093;28;20026;-71
2022/08/05 06:57:53;;;;;;;13.30;5.97;;;;;;;21.54;100.00;101646.16;5199766;28;20025;-71
2022/08/05 07:00:24;;;;;;;12.60;5.93;;;;;;;21.67;100.00;101648.78;5199736;28;20025;-69
2022/08/05 07:02:54;;;;;;;19.27;5.90;;;;;;;21.46;100.00;101654.59;5192300;28;20026;-70
2022/08/05 07:05:25;;;;;;;8.18;4.90;;;;;;;21.43;100.00;101650.38;5191419;28;20029;-70
2022/08/05 07:07:55;;;;;;;16.95;6.05;;;;;;;21.14;100.00;101650.94;5198286;28;20498;-70
2022/08/05 07:10:26;;;;;;;13.00;5.78;;;;;;;20.91;100.00;101667.81;5199289;28;20033;-70
2022/08/05 07:18:35;;;;;;;10.02;5.45;;;;;;;20.51;100.00;101673.34;5197736;28;20394;-70
2022/08/05 07:21:06;;;;;;;12.95;6.18;;;;;;;20.46;100.00;101670.41;5199742;28;20026;-70
2022/08/05 07:23:37;;;;;;;12.93;6.43;;;;;;;20.48;100.00;101678.38;5198993;28;20050;-70
2022/08/05 07:26:07;;;;;;;12.00;5.25;;;;;;;20.91;100.00;101684.16;5198877;28;20562;-70
2022/08/05 07:28:38;;;;;;;12.13;5.05;;;;;;;21.29;100.00;101680.69;5198212;28;20037;-70
2022/08/05 07:31:08;;;;;;;10.57;4.93;;;;;;;21.63;100.00;101682.19;5202947;28;20018;-70
2022/08/05 07:33:39;;;;;;;10.60;5.72;;;;;;;21.62;100.00;101692.28;5202921;28;20022;-70
2022/08/05 07:36:09;;;;;;;11.68;5.32;;;;;;;21.92;100.00;101697.13;5202292;28;20041;-70
2022/08/05 07:38:41;;;;;;;11.95;5.82;;;;;;;22.27;100.00;101697.53;5201772;28;20327;-70
2022/08/05 07:41:16;;;;;;;12.15;5.38;;;;;;;22.43;100.00;101699.69;5203419;28;20494;-70
2022/08/05 07:43:47;;;;;;;10.38;4.43;;;;;;;22.54;100.00;101706.34;5202693;28;20043;-70
2022/08/05 07:46:18;;;;;;;12.02;4.63;;;;;;;22.94;100.00;101709.53;5202573;28;20144;-70
2022/08/05 07:48:48;;;;;;;8.77;4.47;;;;;;;22.77;100.00;101707.59;5194935;28;20022;-70
2022/08/05 07:51:19;;;;;;;13.48;4.32;;;;;;;22.94;100.00;101716.88;5200588;28;20014;-70
2022/08/05 07:53:50;;;;;;;12.10;3.85;;;;;;;23.67;100.00;101713.28;5202740;28;20493;-70
2022/08/05 07:56:20;;;;;;;8.32;4.13;;;;;;;23.78;100.00;101717.97;5202267;28;20047;-70
2022/08/05 07:58:51;;;;;;;7.03;3.72;;;;;;;24.19;100.00;101713.53;5200450;28;20026;-70
2022/08/05 08:01:24;;;;;;;10.05;3.50;;;;;;;25.07;100.00;101720.88;5198765;28;20030;-70
2022/08/05 08:03:55;;;;;;;8.30;3.35;;;;;;;25.70;100.00;101713.59;5201011;28;20024;-70
2022/08/05 08:06:25;;;;;;;7.93;3.38;;;;;;;26.33;100.00;101724.38;5202625;28;20017;-71
2022/08/05 08:08:56;;;;;;;9.35;3.13;;;;;;;27.13;100.00;101715.97;5202351;28;20059;-70
2022/08/05 08:11:28;;;;;;;9.65;3.22;;;;;;;26.21;100.00;101722.81;5203615;28;20021;-70
2022/08/05 08:13:59;;;;;;;5.45;3.13;;;;;;;25.33;100.00;101724.97;5202403;28;20072;-70
2022/08/05 08:16:29;;;;;;;6.30;2.22;;;;;;;24.62;100.00;101734.38;5195386;28;20480;-70
2022/08/05 08:19:00;;;;;;;9.65;2.70;;;;;;;23.95;100.00;101727.19;5202269;28;20036;-70
2022/08/05 08:21:30;;;;;;;6.60;2.60;;;;;;;23.76;100.00;101726.41;5203003;28;20029;-70
2022/08/05 08:24:01;;;;;;;15.32;2.67;;;;;;;23.45;100.00;101730.19;5202721;28;20032;-70
2022/08/05 08:26:31;;;;;;;6.50;2.33;;;;;;;22.94;100.00;101734.16;5201854;28;20099;-70
2022/08/05 08:29:02;;;;;;;7.78;2.30;;;;;;;23.04;100.00;101733.59;5202140;28;20044;-70
2022/08/05 08:31:33;;;;;;;7.72;2.72;;;;;;;23.46;100.00;101731.84;5202589;28;20472;-70
2022/08/05 08:34:04;;;;;;;8.88;2.35;;;;;;;24.43;100.00;101730.88;5202346;28;20029;-70
2022/08/05 08:36:34;;;;;;;36.80;4.40;;;;;;;25.75;100.00;101733.78;5201684;28;20064;-71
2022/08/05 08:39:05;;;;;;;14.52;2.83;;;;;;;26.28;100.00;101734.47;5201864;28;20387;-70
2022/08/05 08:41:39;;;;;;;22.35;3.25;;;;;;;26.74;100.00;101748.97;5202005;28;20033;-70
2022/08/05 08:44:12;;;;;;;6.82;2.40;;;;;;;27.35;100.00;101753.44;5201849;28;20021;-70
2022/08/05 08:46:45;;;;;;;11.02;2.17;;;;;;;27.23;100.00;101762.94;5202567;28;20057;-70
2022/08/05 08:49:19;;;;;;;5.97;2.28;;;;;;;26.13;100.00;101764.47;5199350;28;20110;-70
2022/08/05 08:52:27;;;;;;;7.22;2.55;;;;;;;24.71;100.00;101769.44;5202468;28;20022;-70
2022/08/05 08:54:57;;;;;;;8.82;2.42;;;;;;;23.44;100.00;101766.00;5193046;28;20038;-69
2022/08/05 08:57:28;;;;;;;7.03;2.45;;;;;;;22.74;100.00;101771.75;5200937;28;20525;-70
2022/08/05 09:00:00;;;;;;;4.70;2.60;;;;;;;22.67;100.00;101774.56;5201728;28;20021;-70
2022/08/05 09:02:32;;;;;;;8.88;2.30;;;;;;;22.70;100.00;101774.13;5199575;28;20032;-69
2022/08/05 09:05:03;;;;;;;9.95;2.60;;;;;;;23.19;100.00;101774.28;5180819;28;20030;-69
2022/08/05 09:07:33;;;;;;;6.15;2.90;;;;;;;23.44;100.00;101783.25;5199181;28;20438;-69
2022/08/05 09:10:04;;;;;;;7.80;2.95;;;;;;;24.31;100.00;101785.69;5200942;28;20029;-69
2022/08/05 09:12:36;;;;;;;5.88;2.72;;;;;;;25.13;100.00;101785.78;5201692;28;20700;-69
2022/08/05 09:15:08;;;;;;;6.00;2.20;;;;;;;26.33;100.00;101779.41;5193245;28;20018;-70
2022/08/05 09:17:39;;;;;;;8.25;2.00;;;;;;;26.67;100.00;101786.88;5200687;28;20487;-70
2022/08/05 09:20:10;;;;;;;3.08;1.70;;;;;;;26.13;100.00;101795.53;5200060;28;20025;-70
2022/08/05 09:23:01;;;;;;;5.20;1.85;;;;;;;25.21;100.00;101796.41;5201777;28;20695;-70
2022/08/05 09:25:33;;;;;;;3.70;1.60;;;;;;;24.31;100.00;101799.41;5200533;28;20042;-70
2022/08/05 09:28:27;;;;;;;6.07;2.38;;;;;;;23.82;100.00;101798.63;5201579;28;20523;-70
2022/08/05 09:31:14;;;;;;;3.85;1.50;;;;;;;24.50;100.00;101803.78;5190676;28;20040;-70
2022/08/05 09:33:48;;;;;;;5.25;1.60;;;;;;;24.86;100.00;101803.81;5200965;28;20079;-70
2022/08/05 09:36:19;;;;;;;2.95;1.48;;;;;;;25.41;100.00;101814.41;5201087;28;20033;-70
2022/08/05 09:39:10;;;;;;;3.60;1.48;;;;;;;25.95;100.00;101809.47;5201123;28;20025;-70
2022/08/05 09:42:02;;;;;;;7.35;1.80;;;;;;;26.28;95.62;101806.81;5201302;28;20102;-70
2022/08/05 09:44:53;;;;;;;4.32;1.63;;;;;;;26.20;96.05;101809.97;5199753;28;20071;-70
2022/08/05 09:47:26;;;;;;;2.38;1.40;;;;;;;26.34;96.48;101816.00;5189530;28;20041;-70
2022/08/05 09:49:57;;;;;;;3.10;1.70;;;;;;;26.72;90.08;101815.31;5198844;28;20056;-70
2022/08/05 09:52:30;;;;;;;6.30;1.42;;;;;;;26.69;86.50;101815.78;5200419;28;20013;-70
2022/08/05 09:55:03;;;;;;;4.38;1.40;;;;;;;26.60;96.42;101809.84;5198369;28;20078;-70
2022/08/05 09:57:38;;;;;;;3.50;1.10;;;;;;;26.99;91.36;101807.16;5199436;28;20391;-70
2022/08/05 10:00:10;;;;;;;;;;;;;;;27.68;87.73;101811.44;5200669;28;20486;-70
2022/08/05 10:02:43;;;;;;;4.25;1.33;;;;;;;28.33;75.29;101811.38;5200322;28;20322;-70
2022/08/05 10:05:18;;;;;;;4.80;1.40;;;;;;;28.06;80.28;101811.34;5199192;28;20099;-70
2022/08/05 10:07:51;;;;;;;2.45;1.30;;;;;;;28.26;83.48;101813.44;5200168;28;20029;-71
2022/08/05 10:10:24;;;;;;;3.35;1.55;;;;;;;27.42;75.53;101811.13;5200226;28;20067;-70
2022/08/05 10:12:57;;;;;;;4.68;1.20;;;;;;;26.21;81.90;101806.16;5200609;28;20045;-71
2022/08/05 10:15:30;;;;;;;7.75;1.40;;;;;;;25.55;80.99;101816.66;5199586;28;20021;-70
2022/08/05 10:18:20;;;;;;;2.97;1.13;;;;;;;25.22;86.84;101817.31;5200309;28;20033;-70
2022/08/05 10:20:54;;;;;;;4.82;1.88;;;;;;;24.87;84.95;101819.19;5200181;28;20052;-70
2022/08/05 10:23:44;;;;;;;1.75;1.00;;;;;;;24.88;96.64;101815.38;5200643;28;20033;-71
2022/08/05 10:26:14;;;;;;;3.10;1.10;;;;;;;24.80;89.59;101809.19;5200098;28;20056;-70
2022/08/05 10:28:46;;;;;;;4.13;1.00;;;;;;;25.11;77.10;101829.13;5200082;28;20021;-70
2022/08/05 10:31:17;;;;;;;1.73;1.00;;;;;;;25.17;84.05;101824.59;5199806;28;20092;-70
2022/08/05 10:33:48;;;;;;;2.08;0.90;;;;;;;25.92;74.84;101813.56;5198990;28;20128;-70
2022/08/05 10:36:19;;;;;;;3.38;1.38;;;;;;;26.25;75.75;101810.06;5200234;28;20260;-70
2022/08/05 10:38:54;;;;;;;4.57;1.33;;;;;;;26.25;73.25;101809.22;5200222;28;20083;-69
2022/08/05 10:41:51;;;;;;;5.05;1.50;;;;;;;26.15;77.62;101812.63;5200272;28;20061;-71
2022/08/05 10:44:23;;;;;;;4.57;1.50;;;;;;;26.48;73.37;101806.38;5197329;28;20048;-71
2022/08/05 10:46:55;;;;;;;2.05;1.02;;;;;;;26.14;74.50;101821.13;5199375;28;20100;-70
2022/08/05 10:49:26;;;;;;;3.50;1.00;;;;;;;25.45;73.19;101832.94;5193210;28;20030;-71
2022/08/05 10:51:57;;;;;;;19.05;2.83;;;;;;;24.83;77.04;101827.06;5199876;28;20067;-70
2022/08/05 10:54:48;;;;;;;5.50;1.13;;;;;;;24.85;77.97;101829.56;5198518;28;20471;-70
2022/08/05 10:57:38;;;;;;;3.00;1.00;;;;;;;25.31;74.24;101831.50;5200000;28;20034;-70
2022/08/05 11:00:11;;;;;;;3.83;0.98;;;;;;;25.69;76.84;101835.59;5199740;28;20498;-70
2022/08/05 11:03:19;;;;;;;2.50;1.20;;;;;;;26.08;74.18;101831.19;5195057;28;20732;-70
2022/08/05 11:06:11;;;;;;;6.00;1.50;;;;;;;26.44;73.77;101821.69;5199514;28;20033;-70
2022/08/05 11:09:15;;;;;;;3.78;1.00;;;;;;;26.37;70.79;101833.94;5203842;28;20437;-70
2022/08/05 11:11:49;;;;;;;3.95;1.23;;;;;;;25.78;68.81;101847.91;5204209;28;20025;-70
2022/08/05 11:14:30;;;;;;;4.32;1.48;;;;;;;25.16;71.28;101842.97;5202075;28;20037;-69
2022/08/05 11:17:37;;;;;;;2.85;1.15;;;;;;;25.27;72.72;101849.53;5199322;28;20029;-70
2022/08/05 11:20:43;;;;;;;2.88;0.98;;;;;;;25.78;71.50;101843.25;5202593;28;20052;-70
2022/08/05 11:23:35;;;;;;;3.35;0.95;;;;;;;24.82;72.34;101861.06;5196465;28;20117;-70
2022/08/05 11:26:09;;;;;;;5.43;1.60;;;;;;;24.07;75.24;101860.69;5193249;28;20029;-70
2022/08/05 11:28:43;;;;;;;2.72;0.65;;;;;;;23.97;76.91;101866.72;5203398;28;20021;-70
2022/08/05 11:31:13;;;;;;;3.78;1.27;;;;;;;24.18;78.37;101868.13;5203345;28;20021;-70
2022/08/05 11:33:45;;;;;;;1.85;0.80;;;;;;;24.63;79.68;101871.28;5202813;28;20033;-70
2022/08/05 11:36:18;;;;;;;3.38;1.33;;;;;;;25.08;81.37;101879.03;5198637;28;20156;-70
2022/08/05 11:38:53;;;;;;;2.33;1.08;;;;;;;25.41;74.80;101885.84;5203173;28;20056;-70
2022/08/05 11:41:26;;;;;;;5.55;1.10;;;;;;;25.35;68.84;101886.78;5203128;28;20033;-70
2022/08/05 11:44:01;;;;;;;2.95;1.13;;;;;;;24.91;70.20;101891.75;5196230;28;20403;-70
2022/08/05 11:46:36;;;;;;;4.93;1.00;;;;;;;24.38;72.63;101893.38;5202518;28;20029;-70
2022/08/05 11:49:12;;;;;;;1.50;0.98;;;;;;;24.23;72.29;101892.94;5193574;28;20026;-70
2022/08/05 11:51:44;;;;;;;2.25;0.93;;;;;;;24.22;72.41;101894.84;5200725;28;20075;-70